sensor_id;sensor_type;location;lat;lon;timestamp;P1;durP1;ratioP1;P2;durP2;ratioP2
8958;SDS011;4514;49.476;8.484;2023-05-07T00:00:45;3.03;;;2.70;;
8958;SDS011;4514;49.476;8.484;2023-05-07T00:03:10;2.58;;;2.38;;
8958;SDS011;4514;49.476;8.484;2023-05-07T00:05:38;2.75;;;2.53;;
8958;SDS011;4514;49.476;8.484;2023-05-07T00:08:04;2.60;;;2.40;;
8958;SDS011;4514;49.476;8.484;2023-05-07T00:10:29;3.15;;;2.50;;
8958;SDS011;4514;49.476;8.484;2023-05-07T00:12:55;2.50;;;2.30;;
8958;SDS011;4514;49.476;8.484;2023-05-07T00:15:20;4.32;;;2.60;;
8958;SDS011;4514;49.476;8.484;2023-05-07T00:17:46;3.03;;;2.72;;
8958;SDS011;4514;49.476;8.484;2023-05-07T00:20:11;3.35;;;2.40;;
8958;SDS011;4514;49.476;8.484;2023-05-07T00:22:42;2.97;;;2.70;;
8958;SDS011;4514;49.476;8.484;2023-05-07T00:25:12;3.20;;;2.90;;
8958;SDS011;4514;49.476;8.484;2023-05-07T00:27:37;3.75;;;2.90;;
8958;SDS011;4514;49.476;8.484;2023-05-07T00:30:05;3.67;;;2.92;;
8958;SDS011;4514;49.476;8.484;2023-05-07T00:32:31;3.95;;;2.63;;
8958;SDS011;4514;49.476;8.484;2023-05-07T00:34:58;4.90;;;2.50;;
8958;SDS011;4514;49.476;8.484;2023-05-07T00:37:24;3.38;;;2.80;;
8958;SDS011;4514;49.476;8.484;2023-05-07T00:39:49;4.82;;;2.80;;
8958;SDS011;4514;49.476;8.484;2023-05-07T00:42:15;3.53;;;2.67;;
8958;SDS011;4514;49.476;8.484;2023-05-07T00:44:41;4.18;;;2.63;;
8958;SDS011;4514;49.476;8.484;2023-05-07T00:47:06;3.15;;;2.67;;
8958;SDS011;4514;49.476;8.484;2023-05-07T00:49:37;3.43;;;2.70;;
8958;SDS011;4514;49.476;8.484;2023-05-07T00:52:04;2.70;;;2.50;;
8958;SDS011;4514;49.476;8.484;2023-05-07T00:54:31;3.05;;;2.65;;
8958;SDS011;4514;49.476;8.484;2023-05-07T00:56:57;3.25;;;2.35;;
8958;SDS011;4514;49.476;8.484;2023-05-07T00:59:23;5.80;;;2.35;;
8958;SDS011;4514;49.476;8.484;2023-05-07T01:01:48;3.13;;;2.53;;
8958;SDS011;4514;49.476;8.484;2023-05-07T01:04:13;2.83;;;2.50;;
8958;SDS011;4514;49.476;8.484;2023-05-07T01:06:39;2.97;;;2.35;;
8958;SDS011;4514;49.476;8.484;2023-05-07T01:09:05;4.40;;;2.83;;
8958;SDS011;4514;49.476;8.484;2023-05-07T01:11:33;2.78;;;2.58;;
8958;SDS011;4514;49.476;8.484;2023-05-07T01:13:58;3.97;;;2.63;;
8958;SDS011;4514;49.476;8.484;2023-05-07T01:16:26;3.60;;;2.75;;
8958;SDS011;4514;49.476;8.484;2023-05-07T01:18:52;4.70;;;2.85;;
8958;SDS011;4514;49.476;8.484;2023-05-07T01:21:17;2.78;;;2.58;;
8958;SDS011;4514;49.476;8.484;2023-05-07T01:23:45;4.13;;;3.03;;
8958;SDS011;4514;49.476;8.484;2023-05-07T01:26:15;4.78;;;2.85;;
8958;SDS011;4514;49.476;8.484;2023-05-07T01:28:46;3.58;;;3.08;;
8958;SDS011;4514;49.476;8.484;2023-05-07T01:31:15;2.80;;;2.60;;
8958;SDS011;4514;49.476;8.484;2023-05-07T01:33:42;3.78;;;2.80;;
8958;SDS011;4514;49.476;8.484;2023-05-07T01:36:10;3.08;;;2.85;;
8958;SDS011;4514;49.476;8.484;2023-05-07T01:38:36;4.80;;;2.67;;
8958;SDS011;4514;49.476;8.484;2023-05-07T01:41:05;2.50;;;2.30;;
8958;SDS011;4514;49.476;8.484;2023-05-07T01:43:31;4.70;;;2.60;;
8958;SDS011;4514;49.476;8.484;2023-05-07T01:45:57;3.22;;;2.45;;
8958;SDS011;4514;49.476;8.484;2023-05-07T01:48:30;3.22;;;2.65;;
8958;SDS011;4514;49.476;8.484;2023-05-07T01:50:56;2.83;;;2.63;;
8958;SDS011;4514;49.476;8.484;2023-05-07T01:53:22;3.37;;;2.83;;
8958;SDS011;4514;49.476;8.484;2023-05-07T01:55:47;3.88;;;2.80;;
8958;SDS011;4514;49.476;8.484;2023-05-07T01:58:13;3.37;;;2.83;;
8958;SDS011;4514;49.476;8.484;2023-05-07T02:00:39;3.10;;;2.80;;
8958;SDS011;4514;49.476;8.484;2023-05-07T02:03:04;3.20;;;2.90;;
8958;SDS011;4514;49.476;8.484;2023-05-07T02:05:32;4.28;;;2.72;;
8958;SDS011;4514;49.476;8.484;2023-05-07T02:07:58;3.03;;;2.75;;
8958;SDS011;4514;49.476;8.484;2023-05-07T02:10:23;3.00;;;2.80;;
8958;SDS011;4514;49.476;8.484;2023-05-07T02:12:49;2.78;;;2.53;;
8958;SDS011;4514;49.476;8.484;2023-05-07T02:15:16;3.10;;;2.55;;
8958;SDS011;4514;49.476;8.484;2023-05-07T02:18:01;2.63;;;2.40;;
8958;SDS011;4514;49.476;8.484;2023-05-07T02:20:29;2.50;;;2.30;;
8958;SDS011;4514;49.476;8.484;2023-05-07T02:22:54;3.78;;;2.63;;
8958;SDS011;4514;49.476;8.484;2023-05-07T02:25:22;2.92;;;2.72;;
8958;SDS011;4514;49.476;8.484;2023-05-07T02:27:47;4.18;;;2.75;;
8958;SDS011;4514;49.476;8.484;2023-05-07T02:30:13;2.80;;;2.60;;
8958;SDS011;4514;49.476;8.484;2023-05-07T02:32:41;2.92;;;2.63;;
8958;SDS011;4514;49.476;8.484;2023-05-07T02:35:09;3.13;;;2.80;;
8958;SDS011;4514;49.476;8.484;2023-05-07T02:37:35;3.00;;;2.75;;
8958;SDS011;4514;49.476;8.484;2023-05-07T02:40:00;3.67;;;3.10;;
8958;SDS011;4514;49.476;8.484;2023-05-07T02:42:25;3.38;;;3.08;;
8958;SDS011;4514;49.476;8.484;2023-05-07T02:44:53;4.40;;;3.03;;
8958;SDS011;4514;49.476;8.484;2023-05-07T02:47:21;3.47;;;2.97;;
8958;SDS011;4514;49.476;8.484;2023-05-07T02:49:49;3.42;;;3.10;;
8958;SDS011;4514;49.476;8.484;2023-05-07T02:52:14;6.57;;;3.53;;
8958;SDS011;4514;49.476;8.484;2023-05-07T02:54:42;3.63;;;3.10;;
8958;SDS011;4514;49.476;8.484;2023-05-07T02:57:07;4.20;;;3.80;;
8958;SDS011;4514;49.476;8.484;2023-05-07T02:59:35;4.22;;;3.83;;
8958;SDS011;4514;49.476;8.484;2023-05-07T03:02:03;4.03;;;3.60;;
8958;SDS011;4514;49.476;8.484;2023-05-07T03:04:34;4.00;;;3.60;;
8958;SDS011;4514;49.476;8.484;2023-05-07T03:07:01;4.40;;;3.97;;
8958;SDS011;4514;49.476;8.484;2023-05-07T03:09:29;4.38;;;4.00;;
8958;SDS011;4514;49.476;8.484;2023-05-07T03:11:55;4.40;;;3.80;;
8958;SDS011;4514;49.476;8.484;2023-05-07T03:14:21;4.43;;;4.03;;
8958;SDS011;4514;49.476;8.484;2023-05-07T03:16:46;5.68;;;3.67;;
8958;SDS011;4514;49.476;8.484;2023-05-07T03:19:12;4.05;;;3.65;;
8958;SDS011;4514;49.476;8.484;2023-05-07T03:21:37;4.25;;;3.83;;
8958;SDS011;4514;49.476;8.484;2023-05-07T03:24:02;4.38;;;3.80;;
8958;SDS011;4514;49.476;8.484;2023-05-07T03:26:28;4.20;;;3.80;;
8958;SDS011;4514;49.476;8.484;2023-05-07T03:28:54;6.28;;;3.83;;
8958;SDS011;4514;49.476;8.484;2023-05-07T03:31:22;5.38;;;3.53;;
8958;SDS011;4514;49.476;8.484;2023-05-07T03:33:54;3.67;;;3.38;;
8958;SDS011;4514;49.476;8.484;2023-05-07T03:36:20;6.20;;;3.80;;
8958;SDS011;4514;49.476;8.484;2023-05-07T03:38:48;4.25;;;3.55;;
8958;SDS011;4514;49.476;8.484;2023-05-07T03:41:14;3.78;;;3.42;;
8958;SDS011;4514;49.476;8.484;2023-05-07T03:43:39;4.23;;;3.50;;
8958;SDS011;4514;49.476;8.484;2023-05-07T03:46:05;5.83;;;3.60;;
8958;SDS011;4514;49.476;8.484;2023-05-07T03:48:30;6.47;;;3.20;;
8958;SDS011;4514;49.476;8.484;2023-05-07T03:50:58;5.50;;;3.60;;
8958;SDS011;4514;49.476;8.484;2023-05-07T03:53:24;3.67;;;3.30;;
8958;SDS011;4514;49.476;8.484;2023-05-07T03:55:49;5.75;;;3.42;;
8958;SDS011;4514;49.476;8.484;2023-05-07T03:58:15;3.78;;;3.40;;
8958;SDS011;4514;49.476;8.484;2023-05-07T04:00:40;3.90;;;3.38;;
8958;SDS011;4514;49.476;8.484;2023-05-07T04:03:06;3.50;;;3.20;;
8958;SDS011;4514;49.476;8.484;2023-05-07T04:05:31;3.33;;;3.00;;
8958;SDS011;4514;49.476;8.484;2023-05-07T04:08:02;4.57;;;3.03;;
8958;SDS011;4514;49.476;8.484;2023-05-07T04:10:30;4.70;;;3.58;;
8958;SDS011;4514;49.476;8.484;2023-05-07T04:12:58;3.88;;;3.42;;
8958;SDS011;4514;49.476;8.484;2023-05-07T04:15:26;3.60;;;3.15;;
8958;SDS011;4514;49.476;8.484;2023-05-07T04:17:53;5.55;;;3.40;;
8958;SDS011;4514;49.476;8.484;2023-05-07T04:20:19;3.67;;;3.22;;
8958;SDS011;4514;49.476;8.484;2023-05-07T04:22:49;3.65;;;3.17;;
8958;SDS011;4514;49.476;8.484;2023-05-07T04:25:15;4.20;;;3.30;;
8958;SDS011;4514;49.476;8.484;2023-05-07T04:27:41;4.88;;;3.50;;
8958;SDS011;4514;49.476;8.484;2023-05-07T04:30:11;4.65;;;3.60;;
8958;SDS011;4514;49.476;8.484;2023-05-07T04:32:37;3.25;;;3.00;;
8958;SDS011;4514;49.476;8.484;2023-05-07T04:35:04;4.15;;;3.00;;
8958;SDS011;4514;49.476;8.484;2023-05-07T04:37:32;3.58;;;3.08;;
8958;SDS011;4514;49.476;8.484;2023-05-07T04:39:57;4.72;;;3.28;;
8958;SDS011;4514;49.476;8.484;2023-05-07T04:42:23;4.15;;;3.10;;
8958;SDS011;4514;49.476;8.484;2023-05-07T04:44:53;3.95;;;3.17;;
8958;SDS011;4514;49.476;8.484;2023-05-07T04:47:19;3.72;;;3.42;;
8958;SDS011;4514;49.476;8.484;2023-05-07T04:49:44;3.63;;;2.90;;
8958;SDS011;4514;49.476;8.484;2023-05-07T04:52:10;4.10;;;3.70;;
8958;SDS011;4514;49.476;8.484;2023-05-07T04:54:35;4.03;;;3.38;;
8958;SDS011;4514;49.476;8.484;2023-05-07T04:57:00;3.60;;;3.20;;
8958;SDS011;4514;49.476;8.484;2023-05-07T04:59:26;3.38;;;3.05;;
8958;SDS011;4514;49.476;8.484;2023-05-07T05:01:51;4.50;;;3.30;;
8958;SDS011;4514;49.476;8.484;2023-05-07T05:04:16;4.22;;;3.30;;
8958;SDS011;4514;49.476;8.484;2023-05-07T05:06:42;4.45;;;3.17;;
8958;SDS011;4514;49.476;8.484;2023-05-07T05:09:07;3.05;;;2.78;;
8958;SDS011;4514;49.476;8.484;2023-05-07T05:11:36;3.72;;;3.35;;
8958;SDS011;4514;49.476;8.484;2023-05-07T05:14:01;4.05;;;2.88;;
8958;SDS011;4514;49.476;8.484;2023-05-07T05:16:27;6.30;;;3.03;;
8958;SDS011;4514;49.476;8.484;2023-05-07T05:18:55;7.22;;;3.47;;
8958;SDS011;4514;49.476;8.484;2023-05-07T05:21:22;3.13;;;2.83;;
8958;SDS011;4514;49.476;8.484;2023-05-07T05:23:48;3.22;;;2.92;;
8958;SDS011;4514;49.476;8.484;2023-05-07T05:26:16;4.22;;;3.08;;
8958;SDS011;4514;49.476;8.484;2023-05-07T05:28:41;3.40;;;2.88;;
8958;SDS011;4514;49.476;8.484;2023-05-07T05:31:06;3.38;;;3.08;;
8958;SDS011;4514;49.476;8.484;2023-05-07T05:33:34;3.47;;;3.28;;
8958;SDS011;4514;49.476;8.484;2023-05-07T05:36:00;3.28;;;2.90;;
8958;SDS011;4514;49.476;8.484;2023-05-07T05:38:27;3.40;;;2.83;;
8958;SDS011;4514;49.476;8.484;2023-05-07T05:40:53;3.85;;;3.38;;
8958;SDS011;4514;49.476;8.484;2023-05-07T05:43:18;3.20;;;2.90;;
8958;SDS011;4514;49.476;8.484;2023-05-07T05:45:46;3.85;;;2.97;;
8958;SDS011;4514;49.476;8.484;2023-05-07T05:48:11;3.95;;;3.58;;
8958;SDS011;4514;49.476;8.484;2023-05-07T05:50:41;4.00;;;3.60;;
8958;SDS011;4514;49.476;8.484;2023-05-07T05:53:09;3.55;;;3.17;;
8958;SDS011;4514;49.476;8.484;2023-05-07T05:55:35;4.30;;;3.90;;
8958;SDS011;4514;49.476;8.484;2023-05-07T05:58:00;4.75;;;4.25;;
8958;SDS011;4514;49.476;8.484;2023-05-07T06:00:26;4.93;;;4.43;;
8958;SDS011;4514;49.476;8.484;2023-05-07T06:02:52;4.65;;;3.90;;
8958;SDS011;4514;49.476;8.484;2023-05-07T06:05:17;4.13;;;3.45;;
8958;SDS011;4514;49.476;8.484;2023-05-07T06:07:43;3.67;;;3.30;;
8958;SDS011;4514;49.476;8.484;2023-05-07T06:10:08;5.43;;;3.25;;
8958;SDS011;4514;49.476;8.484;2023-05-07T06:12:33;3.65;;;3.35;;
8958;SDS011;4514;49.476;8.484;2023-05-07T06:14:59;6.43;;;3.85;;
8958;SDS011;4514;49.476;8.484;2023-05-07T06:17:24;4.90;;;4.40;;
8958;SDS011;4514;49.476;8.484;2023-05-07T06:19:50;6.82;;;6.15;;
8958;SDS011;4514;49.476;8.484;2023-05-07T06:22:16;6.00;;;5.38;;
8958;SDS011;4514;49.476;8.484;2023-05-07T06:24:41;6.68;;;6.00;;
8958;SDS011;4514;49.476;8.484;2023-05-07T06:27:07;5.22;;;4.00;;
8958;SDS011;4514;49.476;8.484;2023-05-07T06:29:34;5.35;;;3.55;;
8958;SDS011;4514;49.476;8.484;2023-05-07T06:32:06;3.53;;;3.22;;
8958;SDS011;4514;49.476;8.484;2023-05-07T06:34:32;3.78;;;3.40;;
8958;SDS011;4514;49.476;8.484;2023-05-07T06:36:58;4.60;;;3.50;;
8958;SDS011;4514;49.476;8.484;2023-05-07T06:39:23;6.63;;;3.58;;
8958;SDS011;4514;49.476;8.484;2023-05-07T06:41:49;5.20;;;3.70;;
8958;SDS011;4514;49.476;8.484;2023-05-07T06:44:14;4.32;;;3.90;;
8958;SDS011;4514;49.476;8.484;2023-05-07T06:46:40;3.30;;;3.00;;
8958;SDS011;4514;49.476;8.484;2023-05-07T06:49:05;3.90;;;3.47;;
8958;SDS011;4514;49.476;8.484;2023-05-07T06:51:33;5.93;;;5.45;;
8958;SDS011;4514;49.476;8.484;2023-05-07T06:53:59;10.20;;;7.35;;
8958;SDS011;4514;49.476;8.484;2023-05-07T06:56:29;8.48;;;6.30;;
8958;SDS011;4514;49.476;8.484;2023-05-07T06:58:56;4.85;;;4.00;;
8958;SDS011;4514;49.476;8.484;2023-05-07T07:01:22;5.88;;;4.15;;
8958;SDS011;4514;49.476;8.484;2023-05-07T07:03:49;5.40;;;3.50;;
8958;SDS011;4514;49.476;8.484;2023-05-07T07:06:16;3.35;;;3.05;;
8958;SDS011;4514;49.476;8.484;2023-05-07T07:08:41;3.47;;;3.08;;
8958;SDS011;4514;49.476;8.484;2023-05-07T07:11:07;3.58;;;3.28;;
8958;SDS011;4514;49.476;8.484;2023-05-07T07:13:33;4.68;;;3.13;;
8958;SDS011;4514;49.476;8.484;2023-05-07T07:15:59;5.93;;;3.42;;
8958;SDS011;4514;49.476;8.484;2023-05-07T07:18:24;3.85;;;3.15;;
8958;SDS011;4514;49.476;8.484;2023-05-07T07:20:50;3.65;;;2.72;;
8958;SDS011;4514;49.476;8.484;2023-05-07T07:23:18;3.33;;;2.75;;
8958;SDS011;4514;49.476;8.484;2023-05-07T07:25:43;2.85;;;2.50;;
8958;SDS011;4514;49.476;8.484;2023-05-07T07:28:09;3.10;;;2.90;;
8958;SDS011;4514;49.476;8.484;2023-05-07T07:30:35;2.90;;;2.60;;
8958;SDS011;4514;49.476;8.484;2023-05-07T07:33:06;3.33;;;3.03;;
8958;SDS011;4514;49.476;8.484;2023-05-07T07:35:34;4.85;;;3.15;;
8958;SDS011;4514;49.476;8.484;2023-05-07T07:38:02;4.25;;;2.90;;
8958;SDS011;4514;49.476;8.484;2023-05-07T07:40:27;2.90;;;2.70;;
8958;SDS011;4514;49.476;8.484;2023-05-07T07:42:55;6.03;;;5.40;;
8958;SDS011;4514;49.476;8.484;2023-05-07T07:45:21;8.15;;;7.13;;
8958;SDS011;4514;49.476;8.484;2023-05-07T07:47:48;4.05;;;3.30;;
8958;SDS011;4514;49.476;8.484;2023-05-07T07:50:14;3.00;;;2.80;;
8958;SDS011;4514;49.476;8.484;2023-05-07T07:52:42;4.22;;;2.70;;
8958;SDS011;4514;49.476;8.484;2023-05-07T07:55:12;2.35;;;2.15;;
8958;SDS011;4514;49.476;8.484;2023-05-07T07:57:37;5.47;;;3.63;;
8958;SDS011;4514;49.476;8.484;2023-05-07T08:00:03;6.82;;;4.47;;
8958;SDS011;4514;49.476;8.484;2023-05-07T08:02:29;6.38;;;5.80;;
8958;SDS011;4514;49.476;8.484;2023-05-07T08:04:57;3.10;;;2.90;;
8958;SDS011;4514;49.476;8.484;2023-05-07T08:07:22;3.47;;;2.90;;
8958;SDS011;4514;49.476;8.484;2023-05-07T08:09:50;3.53;;;2.72;;
8958;SDS011;4514;49.476;8.484;2023-05-07T08:12:16;2.70;;;2.50;;
8958;SDS011;4514;49.476;8.484;2023-05-07T08:14:43;2.85;;;2.58;;
8958;SDS011;4514;49.476;8.484;2023-05-07T08:17:11;4.43;;;2.67;;
8958;SDS011;4514;49.476;8.484;2023-05-07T08:19:39;2.92;;;2.65;;
8958;SDS011;4514;49.476;8.484;2023-05-07T08:22:07;4.95;;;2.83;;
8958;SDS011;4514;49.476;8.484;2023-05-07T08:24:35;3.15;;;2.83;;
8958;SDS011;4514;49.476;8.484;2023-05-07T08:27:06;3.60;;;2.80;;
8958;SDS011;4514;49.476;8.484;2023-05-07T08:29:31;4.15;;;2.72;;
8958;SDS011;4514;49.476;8.484;2023-05-07T08:31:59;3.85;;;3.25;;
8958;SDS011;4514;49.476;8.484;2023-05-07T08:34:24;4.38;;;3.17;;
8958;SDS011;4514;49.476;8.484;2023-05-07T08:36:52;3.90;;;3.30;;
8958;SDS011;4514;49.476;8.484;2023-05-07T08:39:20;3.90;;;3.53;;
8958;SDS011;4514;49.476;8.484;2023-05-07T08:41:48;4.60;;;3.03;;
8958;SDS011;4514;49.476;8.484;2023-05-07T08:44:15;4.13;;;2.97;;
8958;SDS011;4514;49.476;8.484;2023-05-07T08:46:46;3.80;;;2.78;;
8958;SDS011;4514;49.476;8.484;2023-05-07T08:49:13;3.40;;;2.50;;
8958;SDS011;4514;49.476;8.484;2023-05-07T08:51:38;4.07;;;2.90;;
8958;SDS011;4514;49.476;8.484;2023-05-07T08:54:04;6.43;;;3.00;;
8958;SDS011;4514;49.476;8.484;2023-05-07T08:56:32;3.72;;;2.72;;
8958;SDS011;4514;49.476;8.484;2023-05-07T08:58:57;3.72;;;2.95;;
8958;SDS011;4514;49.476;8.484;2023-05-07T09:01:23;3.55;;;2.90;;
8958;SDS011;4514;49.476;8.484;2023-05-07T09:03:49;4.00;;;2.58;;
8958;SDS011;4514;49.476;8.484;2023-05-07T09:06:15;3.47;;;2.72;;
8958;SDS011;4514;49.476;8.484;2023-05-07T09:08:44;2.50;;;2.30;;
8958;SDS011;4514;49.476;8.484;2023-05-07T09:11:16;2.80;;;2.50;;
8958;SDS011;4514;49.476;8.484;2023-05-07T09:13:45;3.27;;;2.50;;
8958;SDS011;4514;49.476;8.484;2023-05-07T09:16:13;2.90;;;2.30;;
8958;SDS011;4514;49.476;8.484;2023-05-07T09:18:40;3.03;;;2.20;;
8958;SDS011;4514;49.476;8.484;2023-05-07T09:21:09;2.78;;;2.42;;
8958;SDS011;4514;49.476;8.484;2023-05-07T09:23:38;2.45;;;2.22;;
8958;SDS011;4514;49.476;8.484;2023-05-07T09:26:06;2.47;;;2.28;;
8958;SDS011;4514;49.476;8.484;2023-05-07T09:28:44;2.50;;;2.30;;
8958;SDS011;4514;49.476;8.484;2023-05-07T09:31:14;2.67;;;2.33;;
8958;SDS011;4514;49.476;8.484;2023-05-07T09:33:42;2.97;;;2.15;;
8958;SDS011;4514;49.476;8.484;2023-05-07T09:36:08;4.03;;;2.58;;
8958;SDS011;4514;49.476;8.484;2023-05-07T09:38:37;2.50;;;2.30;;
8958;SDS011;4514;49.476;8.484;2023-05-07T09:43:38;3.25;;;2.58;;
8958;SDS011;4514;49.476;8.484;2023-05-07T09:46:14;3.65;;;2.50;;
8958;SDS011;4514;49.476;8.484;2023-05-07T09:48:42;2.30;;;2.10;;
8958;SDS011;4514;49.476;8.484;2023-05-07T09:53:57;2.85;;;2.30;;
8958;SDS011;4514;49.476;8.484;2023-05-07T09:56:24;4.20;;;2.33;;
8958;SDS011;4514;49.476;8.484;2023-05-07T09:58:50;3.42;;;2.33;;
8958;SDS011;4514;49.476;8.484;2023-05-07T10:01:16;2.50;;;2.30;;
8958;SDS011;4514;49.476;8.484;2023-05-07T10:03:49;3.85;;;2.38;;
8958;SDS011;4514;49.476;8.484;2023-05-07T10:06:15;2.50;;;2.28;;
8958;SDS011;4514;49.476;8.484;2023-05-07T10:08:43;2.55;;;2.20;;
8958;SDS011;4514;49.476;8.484;2023-05-07T10:11:08;4.85;;;2.20;;
8958;SDS011;4514;49.476;8.484;2023-05-07T10:13:34;2.97;;;2.33;;
8958;SDS011;4514;49.476;8.484;2023-05-07T10:16:06;6.68;;;2.42;;
8958;SDS011;4514;49.476;8.484;2023-05-07T10:18:34;2.72;;;2.30;;
8958;SDS011;4514;49.476;8.484;2023-05-07T10:21:11;3.30;;;2.22;;
8958;SDS011;4514;49.476;8.484;2023-05-07T10:23:44;2.30;;;1.77;;
8958;SDS011;4514;49.476;8.484;2023-05-07T10:26:14;2.47;;;2.28;;
8958;SDS011;4514;49.476;8.484;2023-05-07T10:28:43;3.03;;;2.13;;
8958;SDS011;4514;49.476;8.484;2023-05-07T10:33:43;3.20;;;1.98;;
8958;SDS011;4514;49.476;8.484;2023-05-07T10:36:18;2.90;;;1.95;;
8958;SDS011;4514;49.476;8.484;2023-05-07T10:38:47;2.60;;;2.40;;
8958;SDS011;4514;49.476;8.484;2023-05-07T10:41:12;2.20;;;2.00;;
8958;SDS011;4514;49.476;8.484;2023-05-07T10:43:41;2.30;;;2.10;;
8958;SDS011;4514;49.476;8.484;2023-05-07T10:46:15;2.50;;;1.80;;
8958;SDS011;4514;49.476;8.484;2023-05-07T10:49:25;3.17;;;1.90;;
8958;SDS011;4514;49.476;8.484;2023-05-07T10:51:32;2.08;;;1.88;;
8958;SDS011;4514;49.476;8.484;2023-05-07T10:56:35;2.42;;;1.75;;
8958;SDS011;4514;49.476;8.484;2023-05-07T11:01:56;1.92;;;1.83;;
8958;SDS011;4514;49.476;8.484;2023-05-07T11:04:24;2.33;;;2.00;;
8958;SDS011;4514;49.476;8.484;2023-05-07T11:15:09;2.17;;;2.00;;
8958;SDS011;4514;49.476;8.484;2023-05-07T11:20:17;2.38;;;2.17;;
8958;SDS011;4514;49.476;8.484;2023-05-07T11:22:43;2.40;;;2.20;;
8958;SDS011;4514;49.476;8.484;2023-05-07T11:25:11;2.78;;;2.00;;
8958;SDS011;4514;49.476;8.484;2023-05-07T11:27:44;2.22;;;1.85;;
8958;SDS011;4514;49.476;8.484;2023-05-07T11:30:10;2.70;;;2.38;;
8958;SDS011;4514;49.476;8.484;2023-05-07T11:32:47;3.92;;;2.20;;
8958;SDS011;4514;49.476;8.484;2023-05-07T11:35:12;2.00;;;1.88;;
8958;SDS011;4514;49.476;8.484;2023-05-07T11:37:42;2.20;;;2.03;;
8958;SDS011;4514;49.476;8.484;2023-05-07T11:40:12;2.58;;;2.38;;
8958;SDS011;4514;49.476;8.484;2023-05-07T11:42:39;2.22;;;2.00;;
8958;SDS011;4514;49.476;8.484;2023-05-07T11:45:06;4.18;;;2.22;;
8958;SDS011;4514;49.476;8.484;2023-05-07T11:47:32;2.90;;;1.95;;
8958;SDS011;4514;49.476;8.484;2023-05-07T11:50:01;2.70;;;2.50;;
8958;SDS011;4514;49.476;8.484;2023-05-07T11:52:32;3.05;;;2.10;;
8958;SDS011;4514;49.476;8.484;2023-05-07T11:55:00;3.08;;;1.88;;
8958;SDS011;4514;49.476;8.484;2023-05-07T11:57:26;2.10;;;1.90;;
8958;SDS011;4514;49.476;8.484;2023-05-07T11:59:56;1.90;;;1.80;;
8958;SDS011;4514;49.476;8.484;2023-05-07T12:02:22;1.90;;;1.80;;
8958;SDS011;4514;49.476;8.484;2023-05-07T12:04:50;2.30;;;1.90;;
8958;SDS011;4514;49.476;8.484;2023-05-07T12:07:16;2.33;;;1.65;;
8958;SDS011;4514;49.476;8.484;2023-05-07T12:09:42;1.92;;;1.83;;
8958;SDS011;4514;49.476;8.484;2023-05-07T12:12:10;2.25;;;1.90;;
8958;SDS011;4514;49.476;8.484;2023-05-07T12:14:42;3.15;;;1.70;;
8958;SDS011;4514;49.476;8.484;2023-05-07T12:17:08;2.17;;;1.88;;
8958;SDS011;4514;49.476;8.484;2023-05-07T12:19:37;2.22;;;1.90;;
8958;SDS011;4514;49.476;8.484;2023-05-07T12:22:09;2.95;;;1.60;;
8958;SDS011;4514;49.476;8.484;2023-05-07T12:27:15;1.98;;;1.88;;
8958;SDS011;4514;49.476;8.484;2023-05-07T12:29:47;3.15;;;2.05;;
8958;SDS011;4514;49.476;8.484;2023-05-07T12:32:20;1.67;;;1.58;;
8958;SDS011;4514;49.476;8.484;2023-05-07T12:34:46;2.05;;;1.85;;
8958;SDS011;4514;49.476;8.484;2023-05-07T12:37:12;2.97;;;1.70;;
8958;SDS011;4514;49.476;8.484;2023-05-07T12:39:42;2.10;;;1.90;;
8958;SDS011;4514;49.476;8.484;2023-05-07T12:42:09;2.03;;;1.83;;
8958;SDS011;4514;49.476;8.484;2023-05-07T12:44:40;2.10;;;1.90;;
8958;SDS011;4514;49.476;8.484;2023-05-07T12:47:06;2.55;;;1.80;;
8958;SDS011;4514;49.476;8.484;2023-05-07T12:49:33;1.70;;;1.60;;
8958;SDS011;4514;49.476;8.484;2023-05-07T12:52:02;1.60;;;1.50;;
8958;SDS011;4514;49.476;8.484;2023-05-07T12:54:31;1.77;;;1.67;;
8958;SDS011;4514;49.476;8.484;2023-05-07T12:57:07;2.60;;;1.98;;
8958;SDS011;4514;49.476;8.484;2023-05-07T12:59:39;2.13;;;1.80;;
8958;SDS011;4514;49.476;8.484;2023-05-07T13:02:05;3.25;;;1.73;;
8958;SDS011;4514;49.476;8.484;2023-05-07T13:04:33;1.75;;;1.65;;
8958;SDS011;4514;49.476;8.484;2023-05-07T13:07:01;2.65;;;1.60;;
8958;SDS011;4514;49.476;8.484;2023-05-07T13:09:29;2.70;;;1.63;;
8958;SDS011;4514;49.476;8.484;2023-05-07T13:11:55;1.92;;;1.80;;
8958;SDS011;4514;49.476;8.484;2023-05-07T13:14:21;3.28;;;2.28;;
8958;SDS011;4514;49.476;8.484;2023-05-07T13:16:51;1.65;;;1.52;;
8958;SDS011;4514;49.476;8.484;2023-05-07T13:19:16;2.40;;;2.00;;
8958;SDS011;4514;49.476;8.484;2023-05-07T13:21:42;2.58;;;1.75;;
8958;SDS011;4514;49.476;8.484;2023-05-07T13:24:10;2.53;;;1.80;;
8958;SDS011;4514;49.476;8.484;2023-05-07T13:26:35;2.42;;;1.80;;
8958;SDS011;4514;49.476;8.484;2023-05-07T13:29:00;2.00;;;1.70;;
8958;SDS011;4514;49.476;8.484;2023-05-07T13:31:28;3.10;;;2.20;;
8958;SDS011;4514;49.476;8.484;2023-05-07T13:33:54;4.43;;;4.13;;
8958;SDS011;4514;49.476;8.484;2023-05-07T13:36:21;2.92;;;2.15;;
8958;SDS011;4514;49.476;8.484;2023-05-07T13:38:48;2.35;;;2.00;;
8958;SDS011;4514;49.476;8.484;2023-05-07T13:41:17;2.10;;;1.70;;
8958;SDS011;4514;49.476;8.484;2023-05-07T13:43:43;1.92;;;1.83;;
8958;SDS011;4514;49.476;8.484;2023-05-07T13:46:08;2.67;;;2.22;;
8958;SDS011;4514;49.476;8.484;2023-05-07T13:48:34;5.35;;;4.85;;
8958;SDS011;4514;49.476;8.484;2023-05-07T13:51:01;5.70;;;5.20;;
8958;SDS011;4514;49.476;8.484;2023-05-07T13:53:27;3.15;;;2.85;;
8958;SDS011;4514;49.476;8.484;2023-05-07T13:55:52;3.70;;;2.90;;
8958;SDS011;4514;49.476;8.484;2023-05-07T13:58:18;2.17;;;2.00;;
8958;SDS011;4514;49.476;8.484;2023-05-07T14:00:43;1.98;;;1.88;;
8958;SDS011;4514;49.476;8.484;2023-05-07T14:03:08;2.55;;;2.20;;
8958;SDS011;4514;49.476;8.484;2023-05-07T14:05:34;2.10;;;1.90;;
8958;SDS011;4514;49.476;8.484;2023-05-07T14:08:01;2.72;;;2.20;;
8958;SDS011;4514;49.476;8.484;2023-05-07T14:10:28;3.05;;;2.70;;
8958;SDS011;4514;49.476;8.484;2023-05-07T14:12:59;3.38;;;2.13;;
8958;SDS011;4514;49.476;8.484;2023-05-07T14:15:24;2.05;;;1.92;;
8958;SDS011;4514;49.476;8.484;2023-05-07T14:17:52;2.13;;;2.03;;
8958;SDS011;4514;49.476;8.484;2023-05-07T14:20:17;3.55;;;2.10;;
8958;SDS011;4514;49.476;8.484;2023-05-07T14:22:47;2.53;;;1.77;;
8958;SDS011;4514;49.476;8.484;2023-05-07T14:25:15;2.67;;;2.10;;
8958;SDS011;4514;49.476;8.484;2023-05-07T14:27:41;3.10;;;2.80;;
8958;SDS011;4514;49.476;8.484;2023-05-07T14:30:09;3.63;;;1.85;;
8958;SDS011;4514;49.476;8.484;2023-05-07T14:32:35;7.03;;;2.83;;
8958;SDS011;4514;49.476;8.484;2023-05-07T14:35:00;6.43;;;4.57;;
8958;SDS011;4514;49.476;8.484;2023-05-07T14:37:26;6.00;;;3.20;;
8958;SDS011;4514;49.476;8.484;2023-05-07T14:40:01;6.85;;;3.40;;
8958;SDS011;4514;49.476;8.484;2023-05-07T14:42:26;6.53;;;3.40;;
8958;SDS011;4514;49.476;8.484;2023-05-07T14:44:54;7.43;;;3.55;;
8958;SDS011;4514;49.476;8.484;2023-05-07T14:47:19;5.28;;;3.35;;
8958;SDS011;4514;49.476;8.484;2023-05-07T14:49:47;4.55;;;2.85;;
8958;SDS011;4514;49.476;8.484;2023-05-07T14:52:13;2.40;;;2.20;;
8958;SDS011;4514;49.476;8.484;2023-05-07T14:54:38;4.50;;;2.22;;
8958;SDS011;4514;49.476;8.484;2023-05-07T14:57:04;4.13;;;2.58;;
8958;SDS011;4514;49.476;8.484;2023-05-07T14:59:30;3.70;;;2.70;;
8958;SDS011;4514;49.476;8.484;2023-05-07T15:02:00;3.88;;;2.70;;
8958;SDS011;4514;49.476;8.484;2023-05-07T15:04:25;6.85;;;3.20;;
8958;SDS011;4514;49.476;8.484;2023-05-07T15:06:50;4.32;;;3.22;;
8958;SDS011;4514;49.476;8.484;2023-05-07T15:09:19;5.13;;;3.35;;
8958;SDS011;4514;49.476;8.484;2023-05-07T15:11:48;4.43;;;3.47;;
8958;SDS011;4514;49.476;8.484;2023-05-07T15:14:13;4.40;;;3.47;;
8958;SDS011;4514;49.476;8.484;2023-05-07T15:16:39;5.60;;;3.40;;
8958;SDS011;4514;49.476;8.484;2023-05-07T15:19:05;5.63;;;4.00;;
8958;SDS011;4514;49.476;8.484;2023-05-07T15:21:30;4.75;;;3.50;;
8958;SDS011;4514;49.476;8.484;2023-05-07T15:23:59;3.65;;;3.17;;
8958;SDS011;4514;49.476;8.484;2023-05-07T15:26:24;4.78;;;3.08;;
8958;SDS011;4514;49.476;8.484;2023-05-07T15:28:52;4.32;;;3.00;;
8958;SDS011;4514;49.476;8.484;2023-05-07T15:31:21;3.08;;;2.78;;
8958;SDS011;4514;49.476;8.484;2023-05-07T15:33:49;4.53;;;3.30;;
8958;SDS011;4514;49.476;8.484;2023-05-07T15:36:17;4.88;;;2.83;;
8958;SDS011;4514;49.476;8.484;2023-05-07T15:38:45;4.15;;;2.90;;
8958;SDS011;4514;49.476;8.484;2023-05-07T15:41:12;5.25;;;2.80;;